Terminal Aerodrome Forecast
Issued by NWS Twin Cities, MN

Home | Current Version | Previous Version | Graphics & Text | Print | Product List | Glossary On
Versions: 1 2 3 4 5 6 7 8 9 10 11 12 13 14 15 16 17 18 19 20 21 22 23 24
000
FTUS43 KMPX 181500 AAA
TAFMSP
TAF AMD
KMSP 181502Z 1815/1918 23005KT P6SM BKN006 OVC012
     FM181700 25007KT P6SM SCT015 OVC020
      TEMPO 1822/1902 2SM +TSRA BKN014CB
     FM190200 27005KT P6SM BKN050
      TEMPO 1910/1914 4SM BR
     FM191400 31008KT P6SM SCT050 BKN150=

USA.gov is the U.S. government's official web portal to all federal, state and local government web resources and services.